Hanjin Santana — 3EYU3 — position and weather

sailwx.info

Track history (hours):
 
Tides and Currents Weather Stations Pressure Air Temp Water Temp Dewpoint Dewpoint Depression Visibility Wind Speed Wind Dir Waves Ship Positions

Hanjin Santana

Last reported at 2014-Oct-19 05:14 UTC. Time now 2014-Nov-28 16:56 UTC.
Position N 38°33' E 121°08'.
Warning: this ship's position is 40 days out of date.

Length 196 m; draft 6.8 m.

Type: Cargo ship. MMSI: 373673000.

Date/timePositionNaut miles runAvg speedWind from/ knotsBaromVisibWave heightAir tempDewpointWater temp
2014-Oct-19 05:14N 38°33' E 121°08'1012.7
2014-Oct-19 04:27N 38°28' E 121°19'1212.7
2014-Oct-19 03:30N 38°28' E 121°35'1413.2
2014-Oct-19 02:25N 38°27' E 121°53'1113.2
2014-Oct-19 01:33N 38°25' E 122°07'5 1.1
2014-Oct-18 20:33N 38°21' E 122°11'1211.9
2014-Oct-18 19:32N 38°21' E 121°56'1413.6
2014-Oct-18 18:29N 38°21' E 121°38'1613.5
2014-Oct-18 17:16N 38°23' E 121°17'1213.1
2014-Oct-18 16:19N 38°29' E 121°04'6112.4
2014-Oct-18 11:23N 38°42' E 119°47'8812.9
2014-Oct-18 04:32N 38°57' E 117°55'8 7.9
2014-Oct-18 03:33N 38°59' E 117°45'0 0.0
2014-Oct-18 02:33N 38°59' E 117°45'0 0.0
2014-Oct-18 01:33N 38°59' E 117°45'0 0.0
2014-Oct-18 00:33N 38°59' E 117°45'0 0.0
2014-Oct-17 23:33N 38°59' E 117°45'0 0.0
2014-Oct-17 22:21N 38°59' E 117°45'0 0.0
2014-Oct-17 21:33N 38°59' E 117°45'0 0.0
2014-Oct-17 20:33N 38°59' E 117°45'0 0.0
2014-Oct-17 19:33N 38°59' E 117°45'0 0.0
2014-Oct-17 18:33N 38°59' E 117°45'0 0.0
2014-Oct-17 17:33N 38°59' E 117°45'0 0.0
2014-Oct-17 16:33N 38°59' E 117°45'0 0.0
2014-Oct-17 15:33N 38°59' E 117°45'0 0.0
2014-Oct-17 14:33N 38°59' E 117°45'0 0.0
2014-Oct-17 13:33N 38°59' E 117°45'0 0.0
2014-Oct-17 12:34N 38°59' E 117°45'0 0.0
2014-Oct-17 11:33N 38°59' E 117°45'0 0.0
2014-Oct-17 10:21N 38°59' E 117°45'0 0.0
2014-Oct-17 09:27N 38°59' E 117°45'0 0.0
2014-Oct-17 08:21N 38°59' E 117°45'0 0.0
2014-Oct-17 07:22N 38°59' E 117°45'0 0.0
2014-Oct-17 06:33N 38°59' E 117°45'0 0.0
2014-Oct-17 05:33N 38°59' E 117°45'0 0.0
2014-Oct-17 04:33N 38°59' E 117°45'0 0.0
2014-Oct-17 03:15N 38°59' E 117°45'0 0.0
2014-Oct-17 02:33N 38°59' E 117°45'0 0.0
2014-Oct-17 01:33N 38°59' E 117°45'0 0.0
2014-Oct-17 00:33N 38°59' E 117°45'3 2.9
2014-Oct-16 23:33N 38°58' E 117°49'8 8.1
2014-Oct-16 22:33N 38°56' E 117°59'6 5.8
2014-Oct-16 21:27N 38°56' E 118°08'3 3.1
2014-Oct-16 20:29N 38°54' E 118°10'15710.4
2014-Oct-16 05:22N 38°23' E 121°27'6411.0
2014-Oct-15 23:30N 37°46' E 122°35'9 9.6
2014-Oct-15 22:32N 37°38' E 122°41'20 8.2
2014-Oct-15 20:04N 37°20' E 122°54'5 8.7
2014-Oct-15 19:27N 37°15' E 122°54'8 8.9
2014-Oct-15 18:32N 37°07' E 122°53'1010.2
2014-Oct-15 17:32N 36°57' E 122°53'1111.2
2014-Oct-15 16:33N 36°46' E 122°54'1211.8
2014-Oct-15 15:33N 36°34' E 122°54'  
2014-Oct-11 19:21N 24°39' E 119°17'7 8.6
2014-Oct-11 18:31N 24°36' E 119°10'29 8.8
2014-Oct-11 15:15N 24°24' E 118°41'1810.2
2014-Oct-11 13:28N 24°15' E 118°24'8 9.1
2014-Oct-11 12:33N 24°15' E 118°15'1010.2
2014-Oct-11 11:32N 24°23' E 118°07'8 8.1
2014-Oct-11 10:33N 24°31' E 118°04'2 1.8
2014-Oct-11 09:13N 24°33' E 118°06'0 0.0
2014-Oct-11 07:28N 24°33' E 118°06'0 0.0
2014-Oct-11 04:28N 24°33' E 118°06'0 0.0
2014-Oct-11 03:29N 24°33' E 118°06'0 0.0
2014-Oct-11 02:28N 24°33' E 118°06'0 0.0
2014-Oct-11 01:31N 24°33' E 118°06'0 0.0
2014-Oct-11 00:22N 24°33' E 118°06'0 0.0
2014-Oct-10 23:31N 24°33' E 118°06'0 0.0
2014-Oct-10 22:22N 24°33' E 118°06'0 0.0
2014-Oct-10 21:22N 24°33' E 118°06'0 0.0
2014-Oct-10 20:22N 24°33' E 118°06'0 0.0
2014-Oct-10 19:04N 24°33' E 118°06'0 0.0
2014-Oct-10 18:19N 24°33' E 118°06'0 0.0
2014-Oct-10 17:28N 24°33' E 118°06'0 0.0
2014-Oct-10 16:28N 24°33' E 118°06'0 0.0
2014-Oct-10 13:32N 24°33' E 118°06'0 0.0
2014-Oct-10 12:16N 24°33' E 118°06'0 0.0
2014-Oct-10 10:28N 24°33' E 118°06'0 0.0
2014-Oct-10 09:16N 24°33' E 118°06'0 0.0
2014-Oct-10 08:22N 24°33' E 118°06'0 0.0
2014-Oct-10 07:28N 24°33' E 118°06'0 0.0
2014-Oct-10 06:28N 24°33' E 118°06'0 0.0
2014-Oct-10 02:28N 24°33' E 118°06'0 0.0
2014-Oct-10 01:25N 24°33' E 118°06'0 0.0
2014-Oct-10 00:16N 24°33' E 118°06'0 0.0
2014-Oct-09 23:28N 24°33' E 118°06'0 0.0
2014-Oct-09 22:22N 24°33' E 118°06'0 0.0
2014-Oct-09 21:22N 24°33' E 118°06'0 0.0
2014-Oct-09 20:22N 24°33' E 118°06'0 0.0
2014-Oct-09 19:31N 24°33' E 118°06'0 0.0
2014-Oct-09 17:22N 24°33' E 118°06'0 0.0
2014-Oct-09 16:07N 24°33' E 118°06'0 0.0
2014-Oct-09 15:04N 24°33' E 118°06'0 0.0
2014-Oct-09 13:10N 24°33' E 118°06'0 0.0
2014-Oct-09 11:28N 24°33' E 118°06'0 0.0
2014-Oct-09 10:10N 24°33' E 118°06'0 0.0
2014-Oct-09 09:10N 24°33' E 118°06'0 0.0
2014-Oct-09 06:10N 24°33' E 118°06'  
Track history (hours):
 
Tides and Currents Weather Stations Pressure Air Temp Water Temp Dewpoint Dewpoint Depression Visibility Wind Speed Wind Dir Waves Ship Positions

Hanjin Santana

Last reported at 2014-Oct-19 05:14 UTC. Time now 2014-Nov-28 16:56 UTC.
Position N 38°33' E 121°08'.
Warning: this ship's position is 40 days out of date.

Length 196 m; draft 6.8 m.

Type: Cargo ship. MMSI: 373673000.

Date/timePositionNaut miles runAvg speedWind from/ knotsBaromVisibWave heightAir tempDewpointWater temp
2014-Oct-19 05:14N 38°33' E 121°08'1012.7
2014-Oct-19 04:27N 38°28' E 121°19'1212.7
2014-Oct-19 03:30N 38°28' E 121°35'1413.2
2014-Oct-19 02:25N 38°27' E 121°53'1113.2
2014-Oct-19 01:33N 38°25' E 122°07'5 1.1
2014-Oct-18 20:33N 38°21' E 122°11'1211.9
2014-Oct-18 19:32N 38°21' E 121°56'1413.6
2014-Oct-18 18:29N 38°21' E 121°38'1613.5
2014-Oct-18 17:16N 38°23' E 121°17'1213.1
2014-Oct-18 16:19N 38°29' E 121°04'6112.4
2014-Oct-18 11:23N 38°42' E 119°47'8812.9
2014-Oct-18 04:32N 38°57' E 117°55'8 7.9
2014-Oct-18 03:33N 38°59' E 117°45'0 0.0
2014-Oct-18 02:33N 38°59' E 117°45'0 0.0
2014-Oct-18 01:33N 38°59' E 117°45'0 0.0
2014-Oct-18 00:33N 38°59' E 117°45'0 0.0
2014-Oct-17 23:33N 38°59' E 117°45'0 0.0
2014-Oct-17 22:21N 38°59' E 117°45'0 0.0
2014-Oct-17 21:33N 38°59' E 117°45'0 0.0
2014-Oct-17 20:33N 38°59' E 117°45'0 0.0
2014-Oct-17 19:33N 38°59' E 117°45'0 0.0
2014-Oct-17 18:33N 38°59' E 117°45'0 0.0
2014-Oct-17 17:33N 38°59' E 117°45'0 0.0
2014-Oct-17 16:33N 38°59' E 117°45'0 0.0
2014-Oct-17 15:33N 38°59' E 117°45'0 0.0
2014-Oct-17 14:33N 38°59' E 117°45'0 0.0
2014-Oct-17 13:33N 38°59' E 117°45'0 0.0
2014-Oct-17 12:34N 38°59' E 117°45'0 0.0
2014-Oct-17 11:33N 38°59' E 117°45'0 0.0
2014-Oct-17 10:21N 38°59' E 117°45'0 0.0
2014-Oct-17 09:27N 38°59' E 117°45'0 0.0
2014-Oct-17 08:21N 38°59' E 117°45'0 0.0
2014-Oct-17 07:22N 38°59' E 117°45'0 0.0
2014-Oct-17 06:33N 38°59' E 117°45'0 0.0
2014-Oct-17 05:33N 38°59' E 117°45'0 0.0
2014-Oct-17 04:33N 38°59' E 117°45'0 0.0
2014-Oct-17 03:15N 38°59' E 117°45'0 0.0
2014-Oct-17 02:33N 38°59' E 117°45'0 0.0
2014-Oct-17 01:33N 38°59' E 117°45'0 0.0
2014-Oct-17 00:33N 38°59' E 117°45'3 2.9
2014-Oct-16 23:33N 38°58' E 117°49'8 8.1
2014-Oct-16 22:33N 38°56' E 117°59'6 5.8
2014-Oct-16 21:27N 38°56' E 118°08'3 3.1
2014-Oct-16 20:29N 38°54' E 118°10'15710.4
2014-Oct-16 05:22N 38°23' E 121°27'6411.0
2014-Oct-15 23:30N 37°46' E 122°35'9 9.6
2014-Oct-15 22:32N 37°38' E 122°41'20 8.2
2014-Oct-15 20:04N 37°20' E 122°54'5 8.7
2014-Oct-15 19:27N 37°15' E 122°54'8 8.9
2014-Oct-15 18:32N 37°07' E 122°53'1010.2
2014-Oct-15 17:32N 36°57' E 122°53'1111.2
2014-Oct-15 16:33N 36°46' E 122°54'1211.8
2014-Oct-15 15:33N 36°34' E 122°54'  
2014-Oct-11 19:21N 24°39' E 119°17'7 8.6
2014-Oct-11 18:31N 24°36' E 119°10'29 8.8
2014-Oct-11 15:15N 24°24' E 118°41'1810.2
2014-Oct-11 13:28N 24°15' E 118°24'8 9.1
2014-Oct-11 12:33N 24°15' E 118°15'1010.2
2014-Oct-11 11:32N 24°23' E 118°07'8 8.1
2014-Oct-11 10:33N 24°31' E 118°04'2 1.8
2014-Oct-11 09:13N 24°33' E 118°06'0 0.0
2014-Oct-11 07:28N 24°33' E 118°06'0 0.0
2014-Oct-11 04:28N 24°33' E 118°06'0 0.0
2014-Oct-11 03:29N 24°33' E 118°06'0 0.0
2014-Oct-11 02:28N 24°33' E 118°06'0 0.0
2014-Oct-11 01:31N 24°33' E 118°06'0 0.0
2014-Oct-11 00:22N 24°33' E 118°06'0 0.0
2014-Oct-10 23:31N 24°33' E 118°06'0 0.0
2014-Oct-10 22:22N 24°33' E 118°06'0 0.0
2014-Oct-10 21:22N 24°33' E 118°06'0 0.0
2014-Oct-10 20:22N 24°33' E 118°06'0 0.0
2014-Oct-10 19:04N 24°33' E 118°06'0 0.0
2014-Oct-10 18:19N 24°33' E 118°06'0 0.0
2014-Oct-10 17:28N 24°33' E 118°06'0 0.0
2014-Oct-10 16:28N 24°33' E 118°06'0 0.0
2014-Oct-10 13:32N 24°33' E 118°06'0 0.0
2014-Oct-10 12:16N 24°33' E 118°06'0 0.0
2014-Oct-10 10:28N 24°33' E 118°06'0 0.0
2014-Oct-10 09:16N 24°33' E 118°06'0 0.0
2014-Oct-10 08:22N 24°33' E 118°06'0 0.0
2014-Oct-10 07:28N 24°33' E 118°06'0 0.0
2014-Oct-10 06:28N 24°33' E 118°06'0 0.0
2014-Oct-10 02:28N 24°33' E 118°06'0 0.0
2014-Oct-10 01:25N 24°33' E 118°06'0 0.0
2014-Oct-10 00:16N 24°33' E 118°06'0 0.0
2014-Oct-09 23:28N 24°33' E 118°06'0 0.0
2014-Oct-09 22:22N 24°33' E 118°06'0 0.0
2014-Oct-09 21:22N 24°33' E 118°06'0 0.0
2014-Oct-09 20:22N 24°33' E 118°06'0 0.0
2014-Oct-09 19:31N 24°33' E 118°06'0 0.0
2014-Oct-09 17:22N 24°33' E 118°06'0 0.0
2014-Oct-09 16:07N 24°33' E 118°06'0 0.0
2014-Oct-09 15:04N 24°33' E 118°06'0 0.0
2014-Oct-09 13:10N 24°33' E 118°06'0 0.0
2014-Oct-09 11:28N 24°33' E 118°06'0 0.0
2014-Oct-09 10:10N 24°33' E 118°06'0 0.0
2014-Oct-09 09:10N 24°33' E 118°06'0 0.0
2014-Oct-09 06:10N 24°33' E 118°06'  

Dump ship's entire track history